createdAt,value
2018-06-22T00:01:47.615Z,1.70
2018-06-22T00:04:15.811Z,1.77
2018-06-22T00:06:44.016Z,2.93
2018-06-22T00:09:12.194Z,1.80
2018-06-22T00:11:40.379Z,1.80
2018-06-22T00:14:09.107Z,1.97
2018-06-22T00:16:37.347Z,2.20
2018-06-22T00:19:05.554Z,2.07
2018-06-22T00:21:33.743Z,2.70
2018-06-22T00:24:01.939Z,1.60
2018-06-22T00:26:30.128Z,1.73
2018-06-22T00:28:58.332Z,2.13
2018-06-22T00:31:26.836Z,2.00
2018-06-22T00:33:55.028Z,2.13
2018-06-22T00:36:23.219Z,1.80
2018-06-22T00:38:51.406Z,1.67
2018-06-22T00:41:19.595Z,1.60
2018-06-22T00:43:47.782Z,1.57
2018-06-22T00:46:15.974Z,2.03
2018-06-22T00:48:44.160Z,1.90
2018-06-22T00:51:12.319Z,2.00
2018-06-22T00:53:51.932Z,2.13
2018-06-22T00:56:20.067Z,1.87
2018-06-22T00:58:48.215Z,2.00
2018-06-22T01:01:16.395Z,1.93
2018-06-22T01:03:44.583Z,1.73
2018-06-22T01:06:12.763Z,1.77
2018-06-22T01:08:40.922Z,1.73
2018-06-22T01:11:08.831Z,2.07
2018-06-22T01:13:37.003Z,1.80
2018-06-22T01:16:05.167Z,2.70
2018-06-22T01:18:33.318Z,1.67
2018-06-22T01:21:01.444Z,1.73
2018-06-22T01:23:29.575Z,2.10
2018-06-22T01:25:57.819Z,2.27
2018-06-22T01:28:25.982Z,2.30
2018-06-22T01:30:54.111Z,2.33
2018-06-22T01:33:22.262Z,2.20
2018-06-22T01:35:50.383Z,1.80
2018-06-22T01:38:18.522Z,2.33
2018-06-22T01:40:46.643Z,2.27
2018-06-22T01:43:14.795Z,2.00
2018-06-22T01:45:42.927Z,2.87
2018-06-22T01:48:11.077Z,2.07
2018-06-22T01:50:39.243Z,1.90
2018-06-22T01:53:07.424Z,2.03
2018-06-22T01:55:35.586Z,1.97
2018-06-22T01:58:03.762Z,2.23
2018-06-22T02:00:31.931Z,2.10
2018-06-22T02:03:00.099Z,2.33
2018-06-22T02:05:28.263Z,2.17
2018-06-22T02:07:56.509Z,2.53
2018-06-22T02:10:24.715Z,2.20
2018-06-22T02:12:52.874Z,2.20
2018-06-22T02:15:21.048Z,2.23
2018-06-22T02:17:49.327Z,2.30
2018-06-22T02:20:17.548Z,2.27
2018-06-22T02:22:45.699Z,2.13
2018-06-22T02:25:13.868Z,1.97
2018-06-22T02:27:42.074Z,2.73
2018-06-22T02:30:10.259Z,3.20
2018-06-22T02:32:38.435Z,2.13
2018-06-22T02:35:06.671Z,2.73
2018-06-22T02:37:34.839Z,2.90
2018-06-22T02:40:03.037Z,2.33
2018-06-22T02:42:31.212Z,2.53
2018-06-22T02:44:59.414Z,2.30
2018-06-22T02:47:27.571Z,1.93
2018-06-22T02:49:55.748Z,2.20
2018-06-22T02:52:23.903Z,2.33
2018-06-22T02:54:52.075Z,3.43
2018-06-22T02:57:20.231Z,2.53
2018-06-22T02:59:48.446Z,2.20
2018-06-22T03:02:16.568Z,2.60
2018-06-22T03:04:44.770Z,2.03
2018-06-22T03:07:12.971Z,3.33
2018-06-22T03:09:41.151Z,2.90
2018-06-22T03:12:09.316Z,2.13
2018-06-22T03:14:37.531Z,2.20
2018-06-22T03:17:05.727Z,2.57
2018-06-22T03:19:33.992Z,2.30
2018-06-22T03:22:02.191Z,2.90
2018-06-22T03:24:30.380Z,3.07
2018-06-22T03:26:58.575Z,3.00
2018-06-22T03:29:26.772Z,2.73
2018-06-22T03:31:54.984Z,2.23
2018-06-22T03:34:23.183Z,2.57
2018-06-22T03:36:51.357Z,2.53
2018-06-22T03:39:19.648Z,2.33
2018-06-22T03:41:47.824Z,2.67
2018-06-22T03:44:16.047Z,2.20
2018-06-22T03:46:44.263Z,2.63
2018-06-22T03:49:12.471Z,2.27
2018-06-22T03:51:40.701Z,2.20
2018-06-22T03:54:08.892Z,3.13
2018-06-22T03:56:37.131Z,2.47
2018-06-22T03:59:05.147Z,2.37
2018-06-22T04:01:33.335Z,2.23
2018-06-22T04:04:01.651Z,2.10
2018-06-22T04:06:29.830Z,2.83
2018-06-22T04:08:58.129Z,2.17
2018-06-22T04:11:26.294Z,2.50
2018-06-22T04:13:54.479Z,2.50
2018-06-22T04:16:22.678Z,3.23
2018-06-22T04:18:50.886Z,2.10
2018-06-22T04:21:19.335Z,2.00
2018-06-22T04:23:47.516Z,2.27
2018-06-22T04:26:15.991Z,3.70
2018-06-22T04:28:44.212Z,2.53
2018-06-22T04:31:12.431Z,3.30
2018-06-22T04:33:40.599Z,3.03
2018-06-22T04:36:08.787Z,2.50
2018-06-22T04:38:37.020Z,2.10
2018-06-22T04:41:05.835Z,3.27
2018-06-22T04:43:33.945Z,3.03
2018-06-22T04:46:02.507Z,2.90
2018-06-22T04:48:30.732Z,3.10
2018-06-22T04:50:58.941Z,3.00
2018-06-22T04:53:27.123Z,2.70
2018-06-22T04:55:55.699Z,3.23
2018-06-22T04:58:23.864Z,3.43
2018-06-22T05:00:52.051Z,4.30
2018-06-22T05:03:20.236Z,3.17
2018-06-22T05:05:48.183Z,4.63
2018-06-22T05:08:16.367Z,2.97
2018-06-22T05:10:44.842Z,3.47
2018-06-22T05:13:13.218Z,3.60
2018-06-22T05:15:41.690Z,3.37
2018-06-22T05:18:09.874Z,4.20
2018-06-22T05:20:38.067Z,2.93
2018-06-22T05:23:06.391Z,3.00
2018-06-22T05:25:34.572Z,3.77
2018-06-22T05:28:03.187Z,3.33
2018-06-22T05:30:31.367Z,4.00
2018-06-22T05:32:59.547Z,3.40
2018-06-22T05:35:27.751Z,2.53
2018-06-22T05:37:55.925Z,3.53
2018-06-22T05:40:24.196Z,3.80
2018-06-22T05:42:52.497Z,3.17
2018-06-22T05:45:21.019Z,5.23
2018-06-22T05:47:49.233Z,4.40
2018-06-22T05:50:17.435Z,4.23
2018-06-22T05:52:45.655Z,3.43
2018-06-22T05:55:13.869Z,4.27
2018-06-22T05:57:42.124Z,3.87
2018-06-22T06:00:10.417Z,2.93
2018-06-22T06:02:38.600Z,3.97
2018-06-22T06:05:06.829Z,3.40
2018-06-22T06:07:35.047Z,4.07
2018-06-22T06:10:03.240Z,3.70
2018-06-22T06:12:31.569Z,3.77
2018-06-22T06:14:59.756Z,3.60
2018-06-22T06:17:27.951Z,2.73
2018-06-22T06:19:56.140Z,3.10
2018-06-22T06:22:24.339Z,4.33
2018-06-22T06:24:52.507Z,3.00
2018-06-22T06:27:20.752Z,3.10
2018-06-22T06:29:48.891Z,2.63
2018-06-22T06:32:17.180Z,2.80
2018-06-22T06:34:45.375Z,3.13
2018-06-22T06:37:13.604Z,2.00
2018-06-22T06:39:41.835Z,1.90
2018-06-22T06:42:12.248Z,2.43
2018-06-22T06:44:40.623Z,2.27
2018-06-22T06:47:09.843Z,2.53
2018-06-22T06:49:38.063Z,3.03
2018-06-22T06:52:06.320Z,2.47
2018-06-22T06:54:34.543Z,2.03
2018-06-22T06:57:03.234Z,2.03
2018-06-22T06:59:31.423Z,1.97
2018-06-22T07:01:59.628Z,1.60
2018-06-22T07:04:27.827Z,2.00
2018-06-22T07:06:56.030Z,1.90
2018-06-22T07:09:24.220Z,1.70
2018-06-22T07:11:52.427Z,1.90
2018-06-22T07:14:20.678Z,1.90
2018-06-22T07:16:48.879Z,1.37
2018-06-22T07:19:17.182Z,1.90
2018-06-22T07:21:45.379Z,2.00
2018-06-22T07:24:14.107Z,1.40
2018-06-22T07:26:42.343Z,1.53
2018-06-22T07:29:10.831Z,2.10
2018-06-22T07:31:39.027Z,1.67
2018-06-22T07:34:07.215Z,1.40
2018-06-22T07:36:35.403Z,2.27
2018-06-22T07:39:03.739Z,1.63
2018-06-22T07:41:31.924Z,1.53
2018-06-22T07:43:59.966Z,1.63
2018-06-22T07:46:28.140Z,1.60
2018-06-22T07:48:56.335Z,2.97
2018-06-22T07:51:24.524Z,2.10
2018-06-22T07:53:52.731Z,1.67
2018-06-22T07:56:20.926Z,1.67
2018-06-22T07:58:48.867Z,1.90
2018-06-22T08:01:17.043Z,1.60
2018-06-22T08:03:45.411Z,1.57
2018-06-22T08:06:13.651Z,1.70
2018-06-22T08:08:41.852Z,1.97
2018-06-22T08:11:10.034Z,1.53
2018-06-22T08:13:38.223Z,1.90
2018-06-22T08:16:06.415Z,1.40
2018-06-22T08:18:34.619Z,1.93
2018-06-22T08:21:02.575Z,1.80
2018-06-22T08:23:30.859Z,1.37
2018-06-22T08:25:59.090Z,1.80
2018-06-22T08:28:27.032Z,1.80
2018-06-22T08:30:55.286Z,1.63
2018-06-22T08:33:23.499Z,1.90
2018-06-22T08:35:51.803Z,1.60
2018-06-22T08:38:19.999Z,1.70
2018-06-22T08:40:48.191Z,1.93
2018-06-22T08:43:16.532Z,2.07
2018-06-22T08:45:44.797Z,1.80
2018-06-22T08:48:12.987Z,1.70
2018-06-22T08:50:41.279Z,2.63
2018-06-22T08:53:09.463Z,2.07
2018-06-22T08:55:37.640Z,2.40
2018-06-22T08:58:05.840Z,3.20
2018-06-22T09:00:34.024Z,2.30
2018-06-22T09:03:02.230Z,1.73
2018-06-22T09:05:30.401Z,1.20
2018-06-22T09:07:58.611Z,1.80
2018-06-22T09:10:26.888Z,1.90
2018-06-22T09:12:55.088Z,1.83
2018-06-22T09:15:23.255Z,1.53
2018-06-22T09:17:51.548Z,1.50
2018-06-22T09:20:19.726Z,1.23
2018-06-22T09:22:48.436Z,1.53
2018-06-22T09:25:16.641Z,1.60
2018-06-22T09:27:44.558Z,1.57
2018-06-22T09:30:12.767Z,1.50
2018-06-22T09:32:40.988Z,1.00
2018-06-22T09:35:09.175Z,1.47
2018-06-22T09:37:38.044Z,1.50
2018-06-22T09:40:06.271Z,1.10
2018-06-22T09:42:34.674Z,1.37
2018-06-22T09:45:02.891Z,1.40
2018-06-22T09:47:31.044Z,1.20
2018-06-22T09:49:59.220Z,1.40
2018-06-22T09:52:27.406Z,1.00
2018-06-22T09:54:55.570Z,1.33
2018-06-22T09:57:23.731Z,1.40
2018-06-22T09:59:51.963Z,1.13
2018-06-22T10:02:20.115Z,1.37
2018-06-22T10:04:48.300Z,1.30
2018-06-22T10:07:16.506Z,1.80
2018-06-22T10:09:44.647Z,1.30
2018-06-22T10:12:12.803Z,1.10
2018-06-22T10:14:40.999Z,1.23
2018-06-22T10:17:09.176Z,1.50
2018-06-22T10:19:37.381Z,1.40
2018-06-22T10:22:05.615Z,2.00
2018-06-22T10:24:33.807Z,1.57
2018-06-22T10:27:02.241Z,1.40
2018-06-22T10:29:30.395Z,1.80
2018-06-22T10:31:58.571Z,1.30
2018-06-22T10:34:26.775Z,1.60
2018-06-22T10:36:54.974Z,1.20
2018-06-22T10:39:23.163Z,1.27
2018-06-22T10:41:51.350Z,1.30
2018-06-22T10:44:19.527Z,1.30
2018-06-22T10:46:47.707Z,1.27
2018-06-22T10:49:15.903Z,1.70
2018-06-22T10:51:44.093Z,1.23
2018-06-22T10:54:12.278Z,1.37
2018-06-22T10:56:40.218Z,1.33
2018-06-22T10:59:08.403Z,1.20
2018-06-22T11:01:36.575Z,1.20
2018-06-22T11:04:05.258Z,1.40
2018-06-22T11:06:33.411Z,1.43
2018-06-22T11:09:01.599Z,2.90
2018-06-22T11:11:29.787Z,1.50
2018-06-22T11:13:58.027Z,1.20
2018-06-22T11:16:26.160Z,0.80
2018-06-22T11:18:54.364Z,1.00
2018-06-22T11:21:22.645Z,0.80
2018-06-22T11:23:50.743Z,1.33
2018-06-22T11:26:18.911Z,2.13
2018-06-22T11:28:47.087Z,1.10
2018-06-22T11:31:15.496Z,1.13
2018-06-22T11:33:43.860Z,1.23
2018-06-22T11:36:11.965Z,1.97
2018-06-22T11:38:40.173Z,1.00
2018-06-22T11:41:08.356Z,1.17
2018-06-22T11:43:36.287Z,1.20
2018-06-22T11:46:04.499Z,1.10
2018-06-22T11:48:32.691Z,1.53
2018-06-22T11:51:00.679Z,1.00
2018-06-22T11:53:28.851Z,1.10
2018-06-22T11:55:57.071Z,1.40
2018-06-22T11:58:25.249Z,1.17
2018-06-22T12:00:53.433Z,1.00
2018-06-22T12:03:21.602Z,1.10
2018-06-22T12:05:49.794Z,1.70
2018-06-22T12:08:17.983Z,0.90
2018-06-22T12:10:46.178Z,1.63
2018-06-22T12:13:15.372Z,1.17
2018-06-22T12:15:43.595Z,1.17
2018-06-22T12:18:11.835Z,1.50
2018-06-22T12:20:40.043Z,1.10
2018-06-22T12:23:08.563Z,1.30
2018-06-22T12:25:36.760Z,1.90
2018-06-22T12:28:05.304Z,1.47
2018-06-22T12:30:33.504Z,2.37
2018-06-22T12:33:01.725Z,1.50
2018-06-22T12:35:29.915Z,1.60
2018-06-22T12:37:58.119Z,1.70
2018-06-22T12:40:26.408Z,1.77
2018-06-22T12:42:54.585Z,1.50
2018-06-22T12:45:22.801Z,1.20
2018-06-22T12:47:51.009Z,1.70
2018-06-22T12:50:19.241Z,1.33
2018-06-22T12:52:47.452Z,1.67
2018-06-22T12:55:15.704Z,1.40
2018-06-22T12:57:44.040Z,2.20
2018-06-22T13:00:12.151Z,1.43
2018-06-22T13:02:40.347Z,1.30
2018-06-22T13:05:08.552Z,1.27
2018-06-22T13:07:36.732Z,1.27
2018-06-22T13:10:05.146Z,1.33
2018-06-22T13:12:33.976Z,1.63
2018-06-22T13:15:03.141Z,1.27
2018-06-22T13:17:31.361Z,1.67
2018-06-22T13:24:07.531Z,1.07
2018-06-22T13:27:10.739Z,2.93
2018-06-22T13:30:13.947Z,1.40
2018-06-22T13:33:17.128Z,1.27
2018-06-22T13:36:20.311Z,1.23
2018-06-22T13:39:23.482Z,2.17
2018-06-22T13:42:26.671Z,1.70
2018-06-22T13:45:29.894Z,1.37
2018-06-22T13:48:33.099Z,1.47
2018-06-22T13:51:36.859Z,1.00
2018-06-22T13:54:40.087Z,1.30
2018-06-22T13:57:43.326Z,1.10
2018-06-22T14:00:46.499Z,1.20
2018-06-22T14:03:54.993Z,1.20
2018-06-22T14:06:58.136Z,1.20
2018-06-22T14:10:01.315Z,1.70
2018-06-22T14:13:04.487Z,2.20
2018-06-22T14:16:07.663Z,1.40
2018-06-22T14:19:11.305Z,1.60
2018-06-22T14:22:14.456Z,1.50
2018-06-22T14:28:55.713Z,1.37
2018-06-22T14:31:58.892Z,1.70
2018-06-22T14:35:02.068Z,1.37
2018-06-22T14:38:05.451Z,1.93
2018-06-22T14:41:08.627Z,1.40
2018-06-22T14:44:11.962Z,1.17
2018-06-22T14:47:15.135Z,1.30
2018-06-22T14:50:18.652Z,1.47
2018-06-22T14:53:27.298Z,1.60
2018-06-22T14:56:36.075Z,1.50
2018-06-22T14:59:45.060Z,2.30
2018-06-22T15:02:53.576Z,1.10
2018-06-22T15:06:02.293Z,2.03
2018-06-22T15:09:08.019Z,2.30
2018-06-22T15:12:11.386Z,2.10
2018-06-22T15:15:15.207Z,1.50
2018-06-22T15:18:18.594Z,2.20
2018-06-22T15:21:21.812Z,1.60
2018-06-22T15:24:25.127Z,1.53
2018-06-22T15:27:28.352Z,1.50
2018-06-22T15:30:31.622Z,1.50
2018-06-22T15:33:40.748Z,1.57
2018-06-22T15:36:49.576Z,1.60
2018-06-22T15:39:58.240Z,1.17
2018-06-22T15:43:06.857Z,1.70
2018-06-22T15:46:15.778Z,2.20
2018-06-22T15:49:24.183Z,2.53
2018-06-22T15:52:32.652Z,1.67
2018-06-22T15:55:38.850Z,1.67
2018-06-22T15:58:42.040Z,1.50
2018-06-22T16:01:45.323Z,1.53
2018-06-22T16:04:48.737Z,1.63
2018-06-22T16:07:51.919Z,1.67
2018-06-22T16:10:55.251Z,1.83
2018-06-22T16:14:04.076Z,1.20
2018-06-22T16:17:13.327Z,1.50
2018-06-22T16:20:22.226Z,1.30
2018-06-22T16:23:31.130Z,1.10
2018-06-22T16:27:06.824Z,1.60
2018-06-22T16:30:11.098Z,1.40
2018-06-22T16:33:14.495Z,1.47
2018-06-22T16:36:17.634Z,1.50
2018-06-22T16:39:20.775Z,1.40
2018-06-22T16:42:23.944Z,1.40
2018-06-22T16:45:27.096Z,3.23
2018-06-22T16:48:30.295Z,1.50
2018-06-22T16:51:33.874Z,1.40
2018-06-22T16:54:37.047Z,1.80
2018-06-22T16:57:40.502Z,1.67
2018-06-22T17:00:43.588Z,1.80
2018-06-22T17:03:47.015Z,2.60
2018-06-22T17:06:55.400Z,2.10
2018-06-22T17:10:04.058Z,1.57
2018-06-22T17:13:12.524Z,1.50
2018-06-22T17:16:21.293Z,1.90
2018-06-22T17:19:25.328Z,1.63
2018-06-22T17:22:28.515Z,1.43
2018-06-22T17:25:31.722Z,1.80
2018-06-22T17:28:34.959Z,2.00
2018-06-22T17:31:38.122Z,2.23
2018-06-22T17:34:41.278Z,2.97
2018-06-22T17:37:44.430Z,1.93
2018-06-22T17:40:47.586Z,1.77
2018-06-22T17:43:50.799Z,1.90
2018-06-22T17:46:53.947Z,1.93
2018-06-22T17:50:01.357Z,1.80
2018-06-22T17:53:04.547Z,2.03
2018-06-22T17:56:07.700Z,2.17
2018-06-22T17:59:16.359Z,3.00
2018-06-22T18:02:24.860Z,2.50
2018-06-22T18:05:33.407Z,2.10
2018-06-22T18:08:42.112Z,2.13
2018-06-22T18:11:50.716Z,2.30
2018-06-22T18:14:53.875Z,1.90
2018-06-22T18:17:57.064Z,2.00
2018-06-22T18:21:00.242Z,1.90
2018-06-22T18:24:03.406Z,2.60
2018-06-22T18:27:06.956Z,1.90
2018-06-22T18:30:12.671Z,2.40
2018-06-22T18:33:16.113Z,2.03
2018-06-22T18:36:19.300Z,2.17
2018-06-22T18:39:22.660Z,2.83
2018-06-22T18:42:25.932Z,2.50
2018-06-22T18:45:29.128Z,2.30
2018-06-22T18:48:32.296Z,2.30
2018-06-22T18:51:35.616Z,2.93
2018-06-22T18:54:44.818Z,2.10
2018-06-22T18:57:53.728Z,3.17
2018-06-22T19:01:02.343Z,2.53
2018-06-22T19:04:05.534Z,2.27
2018-06-22T19:07:08.702Z,2.27
2018-06-22T19:10:11.985Z,1.87
2018-06-22T19:13:15.223Z,2.43
2018-06-22T19:16:18.594Z,2.40
2018-06-22T19:19:22.003Z,2.30
2018-06-22T19:22:25.335Z,2.40
2018-06-22T19:25:28.783Z,2.30
2018-06-22T19:28:32.118Z,2.23
2018-06-22T19:31:35.297Z,2.33
2018-06-22T19:34:44.080Z,2.00
2018-06-22T19:37:47.443Z,2.30
2018-06-22T19:40:50.906Z,2.00
2018-06-22T19:43:59.305Z,2.57
2018-06-22T19:47:07.997Z,3.23
2018-06-22T19:50:16.539Z,2.30
2018-06-22T19:53:25.202Z,2.23
2018-06-22T19:56:28.460Z,4.77
2018-06-22T19:59:31.637Z,2.50
2018-06-22T20:02:34.821Z,2.50
2018-06-22T20:05:38.015Z,3.07
2018-06-22T20:08:41.239Z,2.47
2018-06-22T20:11:44.436Z,2.23
2018-06-22T20:14:47.619Z,3.37
2018-06-22T20:17:50.799Z,2.67
2018-06-22T20:20:53.993Z,2.07
2018-06-22T20:23:57.203Z,1.97
2018-06-22T20:27:00.377Z,2.43
2018-06-22T20:30:03.671Z,2.60
2018-06-22T20:33:06.870Z,2.23
2018-06-22T20:36:15.459Z,2.07
2018-06-22T20:39:24.088Z,2.30
2018-06-22T20:42:32.711Z,2.30
2018-06-22T20:45:42.263Z,2.57
2018-06-22T20:48:50.875Z,2.67
2018-06-22T20:51:54.070Z,3.03
2018-06-22T20:54:57.258Z,2.53
2018-06-22T20:58:06.102Z,2.23
2018-06-22T21:01:09.301Z,2.70
2018-06-22T21:04:12.475Z,2.30
2018-06-22T21:07:15.652Z,2.40
2018-06-22T21:10:18.833Z,3.10
2018-06-22T21:13:22.024Z,2.40
2018-06-22T21:16:25.203Z,3.40
2018-06-22T21:19:28.392Z,2.70
2018-06-22T21:22:31.639Z,2.40
2018-06-22T21:25:34.763Z,3.40
2018-06-22T21:29:46.147Z,2.93
2018-06-22T21:32:54.588Z,3.27
2018-06-22T21:37:01.272Z,2.73
2018-06-22T21:40:04.544Z,2.93
2018-06-22T21:43:07.943Z,2.40
2018-06-22T21:46:11.131Z,2.57
2018-06-22T21:49:14.324Z,2.03
2018-06-22T21:52:17.508Z,3.20
2018-06-22T21:55:20.683Z,2.67
2018-06-22T21:58:23.863Z,4.10
2018-06-22T22:01:27.029Z,3.13
2018-06-22T22:04:30.263Z,2.67
2018-06-22T22:07:33.425Z,3.10
2018-06-22T22:11:11.271Z,3.30
2018-06-22T22:14:14.428Z,3.20
2018-06-22T22:17:17.604Z,3.40
2018-06-22T22:20:20.771Z,3.93
2018-06-22T22:23:24.007Z,3.60
2018-06-22T22:26:27.210Z,3.57
2018-06-22T22:29:30.350Z,3.70
2018-06-22T22:32:33.559Z,3.77
2018-06-22T22:35:36.738Z,2.70
2018-06-22T22:38:39.934Z,3.93
2018-06-22T22:41:43.108Z,3.43
2018-06-22T22:44:46.267Z,2.57
2018-06-22T22:47:49.435Z,3.10
2018-06-22T22:50:52.707Z,3.43
2018-06-22T22:53:55.859Z,2.83
2018-06-22T22:56:59.149Z,3.17
2018-06-22T23:00:02.349Z,3.63
2018-06-22T23:03:05.510Z,3.50
2018-06-22T23:06:08.766Z,3.57
2018-06-22T23:09:11.915Z,4.13
2018-06-22T23:12:15.092Z,2.90
2018-06-22T23:15:18.271Z,3.30
2018-06-22T23:18:21.440Z,2.93
2018-06-22T23:21:24.651Z,2.83
2018-06-22T23:24:27.824Z,3.63
2018-06-22T23:27:30.980Z,3.23
2018-06-22T23:30:34.158Z,3.47
2018-06-22T23:33:37.294Z,3.17
2018-06-22T23:36:40.454Z,2.30
2018-06-22T23:39:43.611Z,2.60
2018-06-22T23:42:46.590Z,2.70
2018-06-22T23:45:49.708Z,2.73
2018-06-22T23:48:52.904Z,2.90
2018-06-22T23:51:56.107Z,2.63
2018-06-22T23:54:59.297Z,2.83
2018-06-22T23:58:02.488Z,3.10
